sensor_id;sensor_type;location;lat;lon;timestamp;P1;durP1;ratioP1;P2;durP2;ratioP2
16468;SDS011;8345;50.902;6.956;2023-12-28T00:00:07;1.90;;;1.60;;
16468;SDS011;8345;50.902;6.956;2023-12-28T00:02:35;3.27;;;2.10;;
16468;SDS011;8345;50.902;6.956;2023-12-28T00:05:02;2.27;;;1.73;;
16468;SDS011;8345;50.902;6.956;2023-12-28T00:07:30;3.60;;;1.93;;
16468;SDS011;8345;50.902;6.956;2023-12-28T00:09:57;1.57;;;1.43;;
16468;SDS011;8345;50.902;6.956;2023-12-28T00:12:26;2.47;;;1.97;;
16468;SDS011;8345;50.902;6.956;2023-12-28T00:14:53;2.73;;;2.17;;
16468;SDS011;8345;50.902;6.956;2023-12-28T00:17:20;2.17;;;1.67;;
16468;SDS011;8345;50.902;6.956;2023-12-28T00:19:47;2.23;;;1.83;;
16468;SDS011;8345;50.902;6.956;2023-12-28T00:22:15;1.90;;;1.60;;
16468;SDS011;8345;50.902;6.956;2023-12-28T00:24:42;3.83;;;2.10;;
16468;SDS011;8345;50.902;6.956;2023-12-28T00:27:09;2.43;;;2.10;;
16468;SDS011;8345;50.902;6.956;2023-12-28T00:29:38;2.00;;;1.80;;
16468;SDS011;8345;50.902;6.956;2023-12-28T00:32:06;2.47;;;2.00;;
16468;SDS011;8345;50.902;6.956;2023-12-28T00:34:34;2.27;;;1.87;;
16468;SDS011;8345;50.902;6.956;2023-12-28T00:37:02;1.97;;;1.77;;
16468;SDS011;8345;50.902;6.956;2023-12-28T00:39:29;1.70;;;1.60;;
16468;SDS011;8345;50.902;6.956;2023-12-28T00:41:57;1.90;;;1.70;;
16468;SDS011;8345;50.902;6.956;2023-12-28T00:44:24;3.57;;;2.47;;
16468;SDS011;8345;50.902;6.956;2023-12-28T00:46:52;2.10;;;1.90;;
16468;SDS011;8345;50.902;6.956;2023-12-28T00:49:19;2.87;;;2.20;;
16468;SDS011;8345;50.902;6.956;2023-12-28T00:51:47;1.70;;;1.60;;
16468;SDS011;8345;50.902;6.956;2023-12-28T00:54:14;2.30;;;2.07;;
16468;SDS011;8345;50.902;6.956;2023-12-28T00:56:41;2.70;;;1.97;;
16468;SDS011;8345;50.902;6.956;2023-12-28T00:59:08;2.13;;;1.63;;
16468;SDS011;8345;50.902;6.956;2023-12-28T01:01:36;1.90;;;1.80;;
16468;SDS011;8345;50.902;6.956;2023-12-28T01:04:04;2.30;;;2.10;;
16468;SDS011;8345;50.902;6.956;2023-12-28T01:06:32;2.40;;;2.20;;
16468;SDS011;8345;50.902;6.956;2023-12-28T01:08:59;2.50;;;2.17;;
16468;SDS011;8345;50.902;6.956;2023-12-28T01:11:26;1.77;;;1.60;;
16468;SDS011;8345;50.902;6.956;2023-12-28T01:13:53;1.97;;;1.80;;
16468;SDS011;8345;50.902;6.956;2023-12-28T01:16:22;2.23;;;1.90;;
16468;SDS011;8345;50.902;6.956;2023-12-28T01:18:50;2.17;;;1.90;;
16468;SDS011;8345;50.902;6.956;2023-12-28T01:21:18;2.50;;;1.80;;
16468;SDS011;8345;50.902;6.956;2023-12-28T01:23:45;2.07;;;1.60;;
16468;SDS011;8345;50.902;6.956;2023-12-28T01:26:13;1.97;;;1.77;;
16468;SDS011;8345;50.902;6.956;2023-12-28T01:28:40;1.73;;;1.50;;
16468;SDS011;8345;50.902;6.956;2023-12-28T01:31:07;1.77;;;1.67;;
16468;SDS011;8345;50.902;6.956;2023-12-28T01:33:34;2.23;;;1.43;;
16468;SDS011;8345;50.902;6.956;2023-12-28T01:36:02;1.70;;;1.60;;
16468;SDS011;8345;50.902;6.956;2023-12-28T01:38:30;1.43;;;1.33;;
16468;SDS011;8345;50.902;6.956;2023-12-28T01:40:57;2.07;;;1.87;;
16468;SDS011;8345;50.902;6.956;2023-12-28T01:43:25;1.40;;;1.30;;
16468;SDS011;8345;50.902;6.956;2023-12-28T01:45:52;1.17;;;1.07;;
16468;SDS011;8345;50.902;6.956;2023-12-28T01:48:19;1.13;;;1.03;;
16468;SDS011;8345;50.902;6.956;2023-12-28T01:50:47;1.07;;;0.93;;
16468;SDS011;8345;50.902;6.956;2023-12-28T01:53:14;1.63;;;1.10;;
16468;SDS011;8345;50.902;6.956;2023-12-28T01:55:43;1.40;;;1.30;;
16468;SDS011;8345;50.902;6.956;2023-12-28T01:58:10;1.43;;;1.33;;
16468;SDS011;8345;50.902;6.956;2023-12-28T02:00:38;2.03;;;1.20;;
16468;SDS011;8345;50.902;6.956;2023-12-28T02:03:05;0.90;;;0.90;;
16468;SDS011;8345;50.902;6.956;2023-12-28T02:05:33;1.40;;;1.30;;
16468;SDS011;8345;50.902;6.956;2023-12-28T02:08:00;1.00;;;0.90;;
16468;SDS011;8345;50.902;6.956;2023-12-28T02:10:28;1.43;;;1.30;;
16468;SDS011;8345;50.902;6.956;2023-12-28T02:12:57;1.00;;;1.00;;
16468;SDS011;8345;50.902;6.956;2023-12-28T02:15:24;1.90;;;1.20;;
16468;SDS011;8345;50.902;6.956;2023-12-28T02:17:54;1.83;;;1.30;;
16468;SDS011;8345;50.902;6.956;2023-12-28T02:20:22;1.13;;;1.00;;
16468;SDS011;8345;50.902;6.956;2023-12-28T02:22:50;2.40;;;1.10;;
16468;SDS011;8345;50.902;6.956;2023-12-28T02:25:19;1.17;;;1.03;;
16468;SDS011;8345;50.902;6.956;2023-12-28T02:27:46;1.10;;;1.00;;
16468;SDS011;8345;50.902;6.956;2023-12-28T02:30:15;1.40;;;0.90;;
16468;SDS011;8345;50.902;6.956;2023-12-28T02:32:52;1.17;;;1.07;;
16468;SDS011;8345;50.902;6.956;2023-12-28T02:35:20;1.33;;;1.00;;
16468;SDS011;8345;50.902;6.956;2023-12-28T02:37:51;1.27;;;1.00;;
16468;SDS011;8345;50.902;6.956;2023-12-28T02:40:20;1.07;;;0.90;;
16468;SDS011;8345;50.902;6.956;2023-12-28T02:42:48;1.10;;;1.00;;
16468;SDS011;8345;50.902;6.956;2023-12-28T02:45:15;1.27;;;1.17;;
16468;SDS011;8345;50.902;6.956;2023-12-28T02:47:42;1.57;;;1.00;;
16468;SDS011;8345;50.902;6.956;2023-12-28T02:50:10;1.00;;;0.90;;
16468;SDS011;8345;50.902;6.956;2023-12-28T02:52:37;1.40;;;1.20;;
16468;SDS011;8345;50.902;6.956;2023-12-28T02:55:07;1.30;;;1.20;;
16468;SDS011;8345;50.902;6.956;2023-12-28T02:57:36;1.30;;;1.20;;
16468;SDS011;8345;50.902;6.956;2023-12-28T03:00:04;1.57;;;1.20;;
16468;SDS011;8345;50.902;6.956;2023-12-28T03:02:33;2.10;;;1.47;;
16468;SDS011;8345;50.902;6.956;2023-12-28T03:05:00;1.20;;;1.10;;
16468;SDS011;8345;50.902;6.956;2023-12-28T03:07:28;1.80;;;1.70;;
16468;SDS011;8345;50.902;6.956;2023-12-28T03:09:55;1.20;;;1.10;;
16468;SDS011;8345;50.902;6.956;2023-12-28T03:12:22;2.00;;;1.30;;
16468;SDS011;8345;50.902;6.956;2023-12-28T03:14:51;1.43;;;1.23;;
16468;SDS011;8345;50.902;6.956;2023-12-28T03:17:18;1.20;;;1.10;;
16468;SDS011;8345;50.902;6.956;2023-12-28T03:19:45;1.07;;;0.90;;
16468;SDS011;8345;50.902;6.956;2023-12-28T03:22:12;2.00;;;1.57;;
16468;SDS011;8345;50.902;6.956;2023-12-28T03:24:40;1.93;;;1.73;;
16468;SDS011;8345;50.902;6.956;2023-12-28T03:27:07;1.47;;;1.33;;
16468;SDS011;8345;50.902;6.956;2023-12-28T03:29:34;1.47;;;1.37;;
16468;SDS011;8345;50.902;6.956;2023-12-28T03:32:03;1.70;;;1.57;;
16468;SDS011;8345;50.902;6.956;2023-12-28T03:34:31;1.57;;;1.47;;
16468;SDS011;8345;50.902;6.956;2023-12-28T03:36:59;1.80;;;1.20;;
16468;SDS011;8345;50.902;6.956;2023-12-28T03:39:26;2.30;;;1.30;;
16468;SDS011;8345;50.902;6.956;2023-12-28T03:41:53;1.43;;;1.33;;
16468;SDS011;8345;50.902;6.956;2023-12-28T03:44:21;1.77;;;1.23;;
16468;SDS011;8345;50.902;6.956;2023-12-28T03:46:48;3.20;;;1.53;;
16468;SDS011;8345;50.902;6.956;2023-12-28T03:49:17;2.67;;;2.00;;
16468;SDS011;8345;50.902;6.956;2023-12-28T03:51:45;1.50;;;1.40;;
16468;SDS011;8345;50.902;6.956;2023-12-28T03:54:12;1.70;;;1.60;;
16468;SDS011;8345;50.902;6.956;2023-12-28T03:56:39;1.90;;;1.70;;
16468;SDS011;8345;50.902;6.956;2023-12-28T03:59:08;1.80;;;1.60;;
16468;SDS011;8345;50.902;6.956;2023-12-28T04:01:35;1.97;;;1.70;;
16468;SDS011;8345;50.902;6.956;2023-12-28T04:04:03;2.60;;;1.67;;
16468;SDS011;8345;50.902;6.956;2023-12-28T04:06:31;2.97;;;1.70;;
16468;SDS011;8345;50.902;6.956;2023-12-28T04:08:58;2.30;;;1.70;;
16468;SDS011;8345;50.902;6.956;2023-12-28T04:11:26;3.00;;;1.60;;
16468;SDS011;8345;50.902;6.956;2023-12-28T04:13:53;1.67;;;1.47;;
16468;SDS011;8345;50.902;6.956;2023-12-28T04:16:20;2.80;;;1.70;;
16468;SDS011;8345;50.902;6.956;2023-12-28T04:18:47;1.93;;;1.37;;
16468;SDS011;8345;50.902;6.956;2023-12-28T04:21:15;1.67;;;1.50;;
16468;SDS011;8345;50.902;6.956;2023-12-28T04:23:44;2.23;;;1.40;;
16468;SDS011;8345;50.902;6.956;2023-12-28T04:26:11;2.90;;;1.70;;
16468;SDS011;8345;50.902;6.956;2023-12-28T04:28:38;2.23;;;1.57;;
16468;SDS011;8345;50.902;6.956;2023-12-28T04:31:06;1.67;;;1.57;;
16468;SDS011;8345;50.902;6.956;2023-12-28T04:33:33;2.07;;;1.50;;
16468;SDS011;8345;50.902;6.956;2023-12-28T04:36:01;1.60;;;1.50;;
16468;SDS011;8345;50.902;6.956;2023-12-28T04:38:30;2.73;;;1.30;;
16468;SDS011;8345;50.902;6.956;2023-12-28T04:40:59;1.53;;;1.33;;
16468;SDS011;8345;50.902;6.956;2023-12-28T04:43:26;1.60;;;1.50;;
16468;SDS011;8345;50.902;6.956;2023-12-28T04:45:53;1.80;;;1.60;;
16468;SDS011;8345;50.902;6.956;2023-12-28T04:48:20;2.57;;;1.70;;
16468;SDS011;8345;50.902;6.956;2023-12-28T04:50:50;1.53;;;1.43;;
16468;SDS011;8345;50.902;6.956;2023-12-28T04:53:18;2.50;;;1.80;;
16468;SDS011;8345;50.902;6.956;2023-12-28T04:55:45;1.70;;;1.60;;
16468;SDS011;8345;50.902;6.956;2023-12-28T04:58:13;2.63;;;1.57;;
16468;SDS011;8345;50.902;6.956;2023-12-28T05:00:40;1.70;;;1.60;;
16468;SDS011;8345;50.902;6.956;2023-12-28T05:03:08;2.67;;;1.73;;
16468;SDS011;8345;50.902;6.956;2023-12-28T05:05:35;1.97;;;1.60;;
16468;SDS011;8345;50.902;6.956;2023-12-28T05:08:02;3.27;;;1.70;;
16468;SDS011;8345;50.902;6.956;2023-12-28T05:10:30;2.23;;;1.80;;
16468;SDS011;8345;50.902;6.956;2023-12-28T05:12:57;2.27;;;2.00;;
16468;SDS011;8345;50.902;6.956;2023-12-28T05:15:25;2.00;;;1.80;;
16468;SDS011;8345;50.902;6.956;2023-12-28T05:17:53;2.63;;;1.90;;
16468;SDS011;8345;50.902;6.956;2023-12-28T05:20:20;2.20;;;1.70;;
16468;SDS011;8345;50.902;6.956;2023-12-28T05:22:47;2.53;;;1.73;;
16468;SDS011;8345;50.902;6.956;2023-12-28T05:25:14;2.33;;;2.13;;
16468;SDS011;8345;50.902;6.956;2023-12-28T05:27:41;3.70;;;2.03;;
16468;SDS011;8345;50.902;6.956;2023-12-28T05:30:09;2.10;;;1.70;;
16468;SDS011;8345;50.902;6.956;2023-12-28T05:32:38;2.83;;;1.83;;
16468;SDS011;8345;50.902;6.956;2023-12-28T05:35:05;3.27;;;2.10;;
16468;SDS011;8345;50.902;6.956;2023-12-28T05:37:33;2.80;;;2.23;;
16468;SDS011;8345;50.902;6.956;2023-12-28T05:40:00;2.00;;;1.90;;
16468;SDS011;8345;50.902;6.956;2023-12-28T05:42:27;2.80;;;2.17;;
16468;SDS011;8345;50.902;6.956;2023-12-28T05:44:54;2.57;;;2.13;;
16468;SDS011;8345;50.902;6.956;2023-12-28T05:47:22;2.07;;;1.87;;
16468;SDS011;8345;50.902;6.956;2023-12-28T05:49:50;4.47;;;2.27;;
16468;SDS011;8345;50.902;6.956;2023-12-28T05:52:17;2.87;;;2.13;;
16468;SDS011;8345;50.902;6.956;2023-12-28T05:54:45;3.13;;;2.70;;
16468;SDS011;8345;50.902;6.956;2023-12-28T05:57:13;3.00;;;2.20;;
16468;SDS011;8345;50.902;6.956;2023-12-28T05:59:40;2.20;;;2.00;;
16468;SDS011;8345;50.902;6.956;2023-12-28T06:02:07;2.67;;;2.10;;
16468;SDS011;8345;50.902;6.956;2023-12-28T06:04:34;2.50;;;2.00;;
16468;SDS011;8345;50.902;6.956;2023-12-28T06:07:04;3.57;;;1.93;;
16468;SDS011;8345;50.902;6.956;2023-12-28T06:09:31;3.43;;;2.00;;
16468;SDS011;8345;50.902;6.956;2023-12-28T06:11:58;3.53;;;1.90;;
16468;SDS011;8345;50.902;6.956;2023-12-28T06:14:25;2.27;;;1.90;;
16468;SDS011;8345;50.902;6.956;2023-12-28T06:16:53;2.70;;;2.00;;
16468;SDS011;8345;50.902;6.956;2023-12-28T06:19:20;2.63;;;1.90;;
16468;SDS011;8345;50.902;6.956;2023-12-28T06:21:47;3.13;;;1.90;;
16468;SDS011;8345;50.902;6.956;2023-12-28T06:24:16;5.53;;;2.10;;
16468;SDS011;8345;50.902;6.956;2023-12-28T06:26:43;4.03;;;2.13;;
16468;SDS011;8345;50.902;6.956;2023-12-28T06:29:11;2.40;;;2.17;;
16468;SDS011;8345;50.902;6.956;2023-12-28T06:31:38;3.53;;;2.70;;
16468;SDS011;8345;50.902;6.956;2023-12-28T06:34:05;1.73;;;1.60;;
16468;SDS011;8345;50.902;6.956;2023-12-28T06:36:33;3.17;;;1.80;;
16468;SDS011;8345;50.902;6.956;2023-12-28T06:39:00;3.00;;;2.07;;
16468;SDS011;8345;50.902;6.956;2023-12-28T06:41:29;3.20;;;2.00;;
16468;SDS011;8345;50.902;6.956;2023-12-28T06:43:56;3.50;;;2.37;;
16468;SDS011;8345;50.902;6.956;2023-12-28T06:46:23;3.07;;;2.10;;
16468;SDS011;8345;50.902;6.956;2023-12-28T06:48:50;1.87;;;1.70;;
16468;SDS011;8345;50.902;6.956;2023-12-28T06:51:17;4.40;;;2.20;;
16468;SDS011;8345;50.902;6.956;2023-12-28T06:53:45;4.57;;;1.77;;
16468;SDS011;8345;50.902;6.956;2023-12-28T06:56:12;3.10;;;1.93;;
16468;SDS011;8345;50.902;6.956;2023-12-28T06:58:41;4.23;;;2.03;;
16468;SDS011;8345;50.902;6.956;2023-12-28T07:01:08;2.50;;;1.83;;
16468;SDS011;8345;50.902;6.956;2023-12-28T07:03:36;3.70;;;2.33;;
16468;SDS011;8345;50.902;6.956;2023-12-28T07:06:03;2.40;;;2.03;;
16468;SDS011;8345;50.902;6.956;2023-12-28T07:08:30;3.10;;;2.03;;
16468;SDS011;8345;50.902;6.956;2023-12-28T07:10:58;2.53;;;2.00;;
16468;SDS011;8345;50.902;6.956;2023-12-28T07:13:25;3.83;;;2.30;;
16468;SDS011;8345;50.902;6.956;2023-12-28T07:15:53;3.00;;;1.83;;
16468;SDS011;8345;50.902;6.956;2023-12-28T07:18:20;2.30;;;1.77;;
16468;SDS011;8345;50.902;6.956;2023-12-28T07:20:48;2.40;;;1.70;;
16468;SDS011;8345;50.902;6.956;2023-12-28T07:23:15;3.10;;;1.90;;
16468;SDS011;8345;50.902;6.956;2023-12-28T07:25:43;2.93;;;1.80;;
16468;SDS011;8345;50.902;6.956;2023-12-28T07:28:10;2.83;;;1.80;;
16468;SDS011;8345;50.902;6.956;2023-12-28T07:30:37;2.80;;;1.80;;
16468;SDS011;8345;50.902;6.956;2023-12-28T07:33:07;3.93;;;2.10;;
16468;SDS011;8345;50.902;6.956;2023-12-28T07:35:35;3.73;;;1.90;;
16468;SDS011;8345;50.902;6.956;2023-12-28T07:38:02;3.43;;;2.67;;
16468;SDS011;8345;50.902;6.956;2023-12-28T07:40:29;2.73;;;2.00;;
16468;SDS011;8345;50.902;6.956;2023-12-28T07:42:56;3.33;;;1.93;;
16468;SDS011;8345;50.902;6.956;2023-12-28T07:45:24;2.90;;;1.80;;
16468;SDS011;8345;50.902;6.956;2023-12-28T07:47:51;2.93;;;2.13;;
16468;SDS011;8345;50.902;6.956;2023-12-28T07:50:19;2.13;;;1.93;;
16468;SDS011;8345;50.902;6.956;2023-12-28T07:52:47;2.70;;;1.73;;
16468;SDS011;8345;50.902;6.956;2023-12-28T07:55:14;2.27;;;1.73;;
16468;SDS011;8345;50.902;6.956;2023-12-28T07:57:41;3.57;;;2.10;;
16468;SDS011;8345;50.902;6.956;2023-12-28T08:00:09;2.50;;;1.80;;
16468;SDS011;8345;50.902;6.956;2023-12-28T08:02:36;3.00;;;2.17;;
16468;SDS011;8345;50.902;6.956;2023-12-28T08:05:04;7.17;;;4.53;;
16468;SDS011;8345;50.902;6.956;2023-12-28T08:07:32;4.17;;;3.00;;
16468;SDS011;8345;50.902;6.956;2023-12-28T08:10:00;4.97;;;2.77;;
16468;SDS011;8345;50.902;6.956;2023-12-28T08:12:28;3.03;;;1.90;;
16468;SDS011;8345;50.902;6.956;2023-12-28T08:14:56;4.40;;;2.10;;
16468;SDS011;8345;50.902;6.956;2023-12-28T08:17:23;3.83;;;2.50;;
16468;SDS011;8345;50.902;6.956;2023-12-28T08:19:50;5.20;;;2.33;;
16468;SDS011;8345;50.902;6.956;2023-12-28T08:22:17;4.00;;;1.90;;
16468;SDS011;8345;50.902;6.956;2023-12-28T08:24:46;3.43;;;1.83;;
16468;SDS011;8345;50.902;6.956;2023-12-28T08:27:13;3.40;;;1.93;;
16468;SDS011;8345;50.902;6.956;2023-12-28T08:29:40;4.83;;;2.07;;
16468;SDS011;8345;50.902;6.956;2023-12-28T08:32:08;11.43;;;2.57;;
16468;SDS011;8345;50.902;6.956;2023-12-28T08:34:35;3.20;;;1.90;;
16468;SDS011;8345;50.902;6.956;2023-12-28T08:37:03;3.57;;;1.97;;
16468;SDS011;8345;50.902;6.956;2023-12-28T08:39:30;4.50;;;2.13;;
16468;SDS011;8345;50.902;6.956;2023-12-28T08:41:59;3.93;;;1.97;;
16468;SDS011;8345;50.902;6.956;2023-12-28T08:44:26;3.03;;;1.93;;
16468;SDS011;8345;50.902;6.956;2023-12-28T08:46:53;2.80;;;2.10;;
16468;SDS011;8345;50.902;6.956;2023-12-28T08:49:20;2.53;;;2.30;;
16468;SDS011;8345;50.902;6.956;2023-12-28T08:51:48;3.97;;;1.80;;
16468;SDS011;8345;50.902;6.956;2023-12-28T08:54:15;2.83;;;1.80;;
16468;SDS011;8345;50.902;6.956;2023-12-28T08:56:42;4.40;;;2.27;;
16468;SDS011;8345;50.902;6.956;2023-12-28T08:59:11;4.00;;;1.93;;
16468;SDS011;8345;50.902;6.956;2023-12-28T09:01:38;5.40;;;2.00;;
16468;SDS011;8345;50.902;6.956;2023-12-28T09:04:05;5.00;;;2.13;;
16468;SDS011;8345;50.902;6.956;2023-12-28T09:06:32;3.50;;;2.03;;
16468;SDS011;8345;50.902;6.956;2023-12-28T09:09:00;3.63;;;1.80;;
16468;SDS011;8345;50.902;6.956;2023-12-28T09:11:28;2.67;;;1.80;;
16468;SDS011;8345;50.902;6.956;2023-12-28T09:13:56;3.60;;;1.57;;
16468;SDS011;8345;50.902;6.956;2023-12-28T09:16:24;3.97;;;1.90;;
16468;SDS011;8345;50.902;6.956;2023-12-28T09:18:53;3.07;;;1.90;;
16468;SDS011;8345;50.902;6.956;2023-12-28T09:21:22;3.33;;;2.00;;
16468;SDS011;8345;50.902;6.956;2023-12-28T09:23:50;3.47;;;1.87;;
16468;SDS011;8345;50.902;6.956;2023-12-28T09:26:17;2.30;;;1.60;;
16468;SDS011;8345;50.902;6.956;2023-12-28T09:28:45;3.57;;;1.60;;
16468;SDS011;8345;50.902;6.956;2023-12-28T09:31:12;5.23;;;1.90;;
16468;SDS011;8345;50.902;6.956;2023-12-28T09:33:40;2.67;;;1.73;;
16468;SDS011;8345;50.902;6.956;2023-12-28T09:36:09;3.33;;;1.90;;
16468;SDS011;8345;50.902;6.956;2023-12-28T09:38:37;5.00;;;2.27;;
16468;SDS011;8345;50.902;6.956;2023-12-28T09:41:07;3.13;;;1.80;;
16468;SDS011;8345;50.902;6.956;2023-12-28T09:43:40;3.23;;;1.97;;
16468;SDS011;8345;50.902;6.956;2023-12-28T09:46:11;3.70;;;1.80;;
16468;SDS011;8345;50.902;6.956;2023-12-28T09:48:38;3.63;;;2.00;;
16468;SDS011;8345;50.902;6.956;2023-12-28T09:51:06;3.37;;;1.73;;
16468;SDS011;8345;50.902;6.956;2023-12-28T09:53:33;3.27;;;1.77;;
16468;SDS011;8345;50.902;6.956;2023-12-28T09:56:00;3.37;;;1.60;;
16468;SDS011;8345;50.902;6.956;2023-12-28T09:58:29;4.00;;;1.97;;
16468;SDS011;8345;50.902;6.956;2023-12-28T10:00:57;4.65;;;2.00;;
16468;SDS011;8345;50.902;6.956;2023-12-28T10:03:26;4.87;;;1.87;;
16468;SDS011;8345;50.902;6.956;2023-12-28T10:05:53;5.27;;;1.83;;
16468;SDS011;8345;50.902;6.956;2023-12-28T10:08:22;5.00;;;2.10;;
16468;SDS011;8345;50.902;6.956;2023-12-28T10:10:49;3.13;;;1.80;;
16468;SDS011;8345;50.902;6.956;2023-12-28T10:13:19;4.30;;;1.67;;
16468;SDS011;8345;50.902;6.956;2023-12-28T10:15:48;4.00;;;1.67;;
16468;SDS011;8345;50.902;6.956;2023-12-28T10:18:17;5.00;;;1.80;;
16468;SDS011;8345;50.902;6.956;2023-12-28T10:20:48;6.00;;;2.00;;
16468;SDS011;8345;50.902;6.956;2023-12-28T10:23:16;4.37;;;1.73;;
16468;SDS011;8345;50.902;6.956;2023-12-28T10:25:44;6.67;;;1.80;;
16468;SDS011;8345;50.902;6.956;2023-12-28T10:28:12;5.33;;;1.87;;
16468;SDS011;8345;50.902;6.956;2023-12-28T10:30:40;3.10;;;1.67;;
16468;SDS011;8345;50.902;6.956;2023-12-28T10:33:07;4.60;;;1.53;;
16468;SDS011;8345;50.902;6.956;2023-12-28T10:35:34;4.13;;;2.07;;
16468;SDS011;8345;50.902;6.956;2023-12-28T10:38:02;5.73;;;1.77;;
16468;SDS011;8345;50.902;6.956;2023-12-28T10:40:29;6.10;;;2.03;;
16468;SDS011;8345;50.902;6.956;2023-12-28T10:42:58;4.33;;;1.93;;
16468;SDS011;8345;50.902;6.956;2023-12-28T10:45:28;4.33;;;1.73;;
16468;SDS011;8345;50.902;6.956;2023-12-28T10:48:00;4.50;;;1.80;;
16468;SDS011;8345;50.902;6.956;2023-12-28T10:50:33;5.80;;;1.73;;
16468;SDS011;8345;50.902;6.956;2023-12-28T10:53:04;5.13;;;1.67;;
16468;SDS011;8345;50.902;6.956;2023-12-28T10:55:39;3.17;;;1.40;;
16468;SDS011;8345;50.902;6.956;2023-12-28T10:58:11;5.03;;;1.87;;
16468;SDS011;8345;50.902;6.956;2023-12-28T11:00:41;4.53;;;1.90;;
16468;SDS011;8345;50.902;6.956;2023-12-28T11:03:11;4.67;;;1.60;;
16468;SDS011;8345;50.902;6.956;2023-12-28T11:05:38;6.43;;;1.97;;
16468;SDS011;8345;50.902;6.956;2023-12-28T11:08:08;3.53;;;1.73;;
16468;SDS011;8345;50.902;6.956;2023-12-28T11:10:35;6.27;;;1.50;;
16468;SDS011;8345;50.902;6.956;2023-12-28T11:13:03;5.33;;;1.67;;
16468;SDS011;8345;50.902;6.956;2023-12-28T11:15:33;3.90;;;1.70;;
16468;SDS011;8345;50.902;6.956;2023-12-28T11:18:01;3.07;;;1.70;;
16468;SDS011;8345;50.902;6.956;2023-12-28T11:20:28;2.37;;;1.40;;
16468;SDS011;8345;50.902;6.956;2023-12-28T11:22:56;5.07;;;1.70;;
16468;SDS011;8345;50.902;6.956;2023-12-28T11:25:23;4.37;;;1.90;;
16468;SDS011;8345;50.902;6.956;2023-12-28T11:27:50;4.30;;;1.63;;
16468;SDS011;8345;50.902;6.956;2023-12-28T11:30:17;4.73;;;1.60;;
16468;SDS011;8345;50.902;6.956;2023-12-28T11:32:46;3.80;;;1.60;;
16468;SDS011;8345;50.902;6.956;2023-12-28T11:35:13;5.57;;;1.83;;
16468;SDS011;8345;50.902;6.956;2023-12-28T11:37:41;4.47;;;1.60;;
16468;SDS011;8345;50.902;6.956;2023-12-28T11:40:10;2.97;;;1.70;;
16468;SDS011;8345;50.902;6.956;2023-12-28T11:42:47;5.80;;;1.77;;
16468;SDS011;8345;50.902;6.956;2023-12-28T11:45:14;3.57;;;1.43;;
16468;SDS011;8345;50.902;6.956;2023-12-28T11:47:42;5.03;;;1.73;;
16468;SDS011;8345;50.902;6.956;2023-12-28T11:50:12;3.53;;;1.63;;
16468;SDS011;8345;50.902;6.956;2023-12-28T11:52:39;3.80;;;1.70;;
16468;SDS011;8345;50.902;6.956;2023-12-28T11:55:06;6.63;;;1.73;;
16468;SDS011;8345;50.902;6.956;2023-12-28T11:57:33;5.13;;;2.10;;
16468;SDS011;8345;50.902;6.956;2023-12-28T12:00:01;4.30;;;1.77;;
16468;SDS011;8345;50.902;6.956;2023-12-28T12:02:29;4.43;;;1.93;;
16468;SDS011;8345;50.902;6.956;2023-12-28T12:04:56;3.43;;;1.70;;
16468;SDS011;8345;50.902;6.956;2023-12-28T12:07:28;3.97;;;1.60;;
16468;SDS011;8345;50.902;6.956;2023-12-28T12:09:55;3.77;;;1.67;;
16468;SDS011;8345;50.902;6.956;2023-12-28T12:12:23;4.87;;;2.13;;
16468;SDS011;8345;50.902;6.956;2023-12-28T12:14:50;3.77;;;1.70;;
16468;SDS011;8345;50.902;6.956;2023-12-28T12:17:17;5.60;;;1.80;;
16468;SDS011;8345;50.902;6.956;2023-12-28T12:19:45;6.00;;;1.90;;
16468;SDS011;8345;50.902;6.956;2023-12-28T12:22:14;4.03;;;1.77;;
16468;SDS011;8345;50.902;6.956;2023-12-28T12:24:42;5.03;;;1.50;;
16468;SDS011;8345;50.902;6.956;2023-12-28T12:27:11;4.23;;;1.70;;
16468;SDS011;8345;50.902;6.956;2023-12-28T12:29:38;6.17;;;2.20;;
16468;SDS011;8345;50.902;6.956;2023-12-28T12:32:05;3.57;;;1.50;;
16468;SDS011;8345;50.902;6.956;2023-12-28T12:34:32;4.63;;;1.80;;
16468;SDS011;8345;50.902;6.956;2023-12-28T12:37:00;6.23;;;2.03;;
16468;SDS011;8345;50.902;6.956;2023-12-28T12:39:27;4.30;;;1.50;;
16468;SDS011;8345;50.902;6.956;2023-12-28T12:41:55;6.27;;;1.57;;
16468;SDS011;8345;50.902;6.956;2023-12-28T12:44:23;4.53;;;1.60;;
16468;SDS011;8345;50.902;6.956;2023-12-28T12:46:56;4.33;;;1.80;;
16468;SDS011;8345;50.902;6.956;2023-12-28T12:49:24;4.43;;;1.70;;
16468;SDS011;8345;50.902;6.956;2023-12-28T12:51:51;4.37;;;1.70;;
16468;SDS011;8345;50.902;6.956;2023-12-28T12:54:18;4.50;;;1.63;;
16468;SDS011;8345;50.902;6.956;2023-12-28T12:56:45;5.40;;;1.50;;
16468;SDS011;8345;50.902;6.956;2023-12-28T12:59:14;5.40;;;4.20;;
16468;SDS011;8345;50.902;6.956;2023-12-28T13:01:42;3.07;;;2.10;;
16468;SDS011;8345;50.902;6.956;2023-12-28T13:04:10;4.53;;;1.67;;
16468;SDS011;8345;50.902;6.956;2023-12-28T13:06:37;4.33;;;1.77;;
16468;SDS011;8345;50.902;6.956;2023-12-28T13:09:04;8.57;;;2.40;;
16468;SDS011;8345;50.902;6.956;2023-12-28T13:11:32;4.73;;;1.57;;
16468;SDS011;8345;50.902;6.956;2023-12-28T13:13:59;3.47;;;1.63;;
16468;SDS011;8345;50.902;6.956;2023-12-28T13:16:28;5.07;;;1.97;;
16468;SDS011;8345;50.902;6.956;2023-12-28T13:18:55;2.60;;;1.43;;
16468;SDS011;8345;50.902;6.956;2023-12-28T13:21:23;4.77;;;1.60;;
16468;SDS011;8345;50.902;6.956;2023-12-28T13:23:50;3.83;;;1.50;;
16468;SDS011;8345;50.902;6.956;2023-12-28T13:26:17;4.83;;;1.67;;
16468;SDS011;8345;50.902;6.956;2023-12-28T13:28:44;4.23;;;1.50;;
16468;SDS011;8345;50.902;6.956;2023-12-28T13:31:11;8.37;;;2.87;;
16468;SDS011;8345;50.902;6.956;2023-12-28T13:33:40;5.20;;;2.10;;
16468;SDS011;8345;50.902;6.956;2023-12-28T13:36:07;3.43;;;1.80;;
16468;SDS011;8345;50.902;6.956;2023-12-28T13:38:34;4.53;;;1.60;;
16468;SDS011;8345;50.902;6.956;2023-12-28T13:41:02;7.23;;;1.80;;
16468;SDS011;8345;50.902;6.956;2023-12-28T13:43:29;3.93;;;1.53;;
16468;SDS011;8345;50.902;6.956;2023-12-28T13:45:56;4.70;;;1.53;;
16468;SDS011;8345;50.902;6.956;2023-12-28T13:48:24;3.60;;;1.57;;
16468;SDS011;8345;50.902;6.956;2023-12-28T13:50:52;3.40;;;1.37;;
16468;SDS011;8345;50.902;6.956;2023-12-28T13:53:20;4.70;;;1.60;;
16468;SDS011;8345;50.902;6.956;2023-12-28T13:55:47;5.47;;;1.80;;
16468;SDS011;8345;50.902;6.956;2023-12-28T13:58:14;4.30;;;1.50;;
16468;SDS011;8345;50.902;6.956;2023-12-28T14:00:41;4.37;;;1.73;;
16468;SDS011;8345;50.902;6.956;2023-12-28T14:03:08;5.63;;;1.70;;
16468;SDS011;8345;50.902;6.956;2023-12-28T14:05:35;5.13;;;1.80;;
16468;SDS011;8345;50.902;6.956;2023-12-28T14:08:04;9.23;;;1.87;;
16468;SDS011;8345;50.902;6.956;2023-12-28T14:10:32;4.77;;;1.93;;
16468;SDS011;8345;50.902;6.956;2023-12-28T14:12:59;4.70;;;2.27;;
16468;SDS011;8345;50.902;6.956;2023-12-28T14:15:27;5.93;;;1.90;;
16468;SDS011;8345;50.902;6.956;2023-12-28T14:17:54;4.57;;;1.63;;
16468;SDS011;8345;50.902;6.956;2023-12-28T14:20:21;4.77;;;1.60;;
16468;SDS011;8345;50.902;6.956;2023-12-28T14:22:48;7.40;;;1.80;;
16468;SDS011;8345;50.902;6.956;2023-12-28T14:25:17;5.10;;;1.60;;
16468;SDS011;8345;50.902;6.956;2023-12-28T14:27:45;5.97;;;1.73;;
16468;SDS011;8345;50.902;6.956;2023-12-28T14:30:13;5.27;;;2.00;;
16468;SDS011;8345;50.902;6.956;2023-12-28T14:32:40;3.87;;;1.87;;
16468;SDS011;8345;50.902;6.956;2023-12-28T14:35:08;4.23;;;1.80;;
16468;SDS011;8345;50.902;6.956;2023-12-28T14:37:36;7.90;;;1.77;;
16468;SDS011;8345;50.902;6.956;2023-12-28T14:40:04;3.70;;;1.63;;
16468;SDS011;8345;50.902;6.956;2023-12-28T14:42:32;4.73;;;1.83;;
16468;SDS011;8345;50.902;6.956;2023-12-28T14:44:59;3.50;;;1.60;;
16468;SDS011;8345;50.902;6.956;2023-12-28T14:47:27;9.07;;;2.27;;
16468;SDS011;8345;50.902;6.956;2023-12-28T14:49:55;5.57;;;1.50;;
16468;SDS011;8345;50.902;6.956;2023-12-28T14:52:22;6.07;;;1.50;;
16468;SDS011;8345;50.902;6.956;2023-12-28T14:54:49;5.13;;;1.93;;
16468;SDS011;8345;50.902;6.956;2023-12-28T14:57:19;4.87;;;1.93;;
16468;SDS011;8345;50.902;6.956;2023-12-28T14:59:47;3.83;;;1.90;;
16468;SDS011;8345;50.902;6.956;2023-12-28T15:02:15;5.80;;;2.43;;